Aviation Digital Data Service (ADDS)

Output produced by METARs form (1244 UTC 22 February 2018)
found at http://www.aviationweather.gov/adds/metars/
 
HUEN 221230Z 18008KT 9999 FEW023 FEW025CB 27/19 Q1012 NOSIG
TAF HUEN 221100Z 2212/2318 17012KT 9999 -TS FEW023 FEW025CB SCT150 FM 221700 22006KT FEW020 FEW022CB SCT120 
     BECMG 2221/2224 34006KT 9000 -TS FEW019 FEW021CB SCT110 
     TEMPO 2302/2306 VRB11KT 8000 -TSRA SCT018 FEW020CB BKN100 
     BECMG 2307/2312 19012KT 9999 FEW023 FEW025CB SCT150 FM 231700 22006KT FEW021 FEW023CB SCT120
       
TAF HUSO 221100Z 2212/2312 25008KT 9999 BKN023 FEW025CB 
     BECMG 2215/2218 20005KT TS SCT020 FEW022CB 
     BECMG 2222/2306 36005KT FEW018 FM 230900 SCT023
       
HUEN 221230Z 18008KT 9999 FEW023 FEW025CB 27/19 Q1012 NOSIG
TAF HUEN 221100Z 2212/2318 17012KT 9999 -TS FEW023 FEW025CB SCT150 FM 221700 22006KT FEW020 FEW022CB SCT120 
     BECMG 2221/2224 34006KT 9000 -TS FEW019 FEW021CB SCT110 
     TEMPO 2302/2306 VRB11KT 8000 -TSRA SCT018 FEW020CB BKN100 
     BECMG 2307/2312 19012KT 9999 FEW023 FEW025CB SCT150 FM 231700 22006KT FEW021 FEW023CB SCT120
       
TAF HUSO 221100Z 2212/2312 25008KT 9999 BKN023 FEW025CB 
     BECMG 2215/2218 20005KT TS SCT020 FEW022CB 
     BECMG 2222/2306 36005KT FEW018 FM 230900 SCT023